Time;durP1;ratioP1;P1;durP2;ratioP2;P2;SDS_P1;SDS_P2;PMS_P1;PMS_P2;Temp;Humidity;BMP_temperature;BMP_pressure;BME280_temperature;BME280_humidity;BME280_pressure;Samples;Min_cycle;Max_cycle;Signal;HPM_P1;HPM_P2
2021/03/26 00:01:29;;;;;;;42.95;15.45;;;;;;;1.48;48.72;100576.71;1700092;84;21291;-64
2021/03/26 00:04:00;;;;;;;46.77;16.33;;;;;;;1.51;48.52;100571.05;1700232;84;21360;-64
2021/03/26 00:06:30;;;;;;;49.50;18.65;;;;;;;1.50;48.72;100575.59;1668995;86;21218;-64
2021/03/26 00:08:58;;;;;;;42.20;16.15;;;;;;;1.48;48.71;100574.87;1690316;85;21240;-64
2021/03/26 00:11:29;;;;;;;45.03;16.82;;;;;;;1.47;48.65;100583.10;1668645;86;21175;-64
2021/03/26 00:13:56;;;;;;;42.98;15.10;;;;;;;1.45;48.69;100579.19;1690323;85;21231;-64
2021/03/26 00:16:25;;;;;;;41.30;13.85;;;;;;;1.41;48.78;100575.05;1668627;86;21179;-64
2021/03/26 00:18:53;;;;;;;37.33;14.33;;;;;;;1.41;48.62;100579.59;1690248;85;21173;-65
2021/03/26 00:21:21;;;;;;;39.73;14.60;;;;;;;1.39;48.76;100579.73;1668664;86;21160;-64
2021/03/26 00:23:48;;;;;;;39.20;14.65;;;;;;;1.38;48.91;100579.86;1690316;84;21182;-64
2021/03/26 00:26:18;;;;;;;40.75;15.35;;;;;;;1.37;48.98;100584.41;1668750;86;21346;-63
2021/03/26 00:28:45;;;;;;;42.53;15.90;;;;;;;1.35;49.09;100582.34;1690451;85;21182;-64
2021/03/26 00:31:13;;;;;;;39.23;15.25;;;;;;;1.35;49.10;100580.13;1675659;85;21193;-64
2021/03/26 00:33:41;;;;;;;40.63;14.85;;;;;;;1.36;48.88;100585.89;1674025;85;21424;-64
2021/03/26 00:36:08;;;;;;;43.00;16.65;;;;;;;1.35;48.77;100582.34;1641619;87;21246;-64
2021/03/26 00:38:36;;;;;;;55.00;17.42;;;;;;;1.35;48.88;100588.23;1674449;85;21389;-64
2021/03/26 00:41:05;;;;;;;40.43;15.65;;;;;;;1.33;49.06;100580.76;1675612;85;21214;-64
2021/03/26 00:43:33;;;;;;;38.58;16.45;;;;;;;1.32;49.08;100581.25;1694464;84;21169;-65
2021/03/26 00:46:01;;;;;;;43.80;16.95;;;;;;;1.36;48.97;100583.19;1661660;86;21195;-64
2021/03/26 00:48:28;;;;;;;42.83;16.57;;;;;;;1.36;48.85;100582.70;1655377;85;21166;-65
2021/03/26 00:51:00;;;;;;;43.42;16.65;;;;;;;1.35;48.49;100580.98;1683144;85;21170;-64
2021/03/26 00:53:33;;;;;;;38.60;15.58;;;;;;;1.33;48.55;100589.71;1661770;86;21496;-63
2021/03/26 00:56:04;;;;;;;41.63;15.03;;;;;;;1.29;48.39;100585.53;1654506;85;21159;-63
2021/03/26 00:58:33;;;;;;;50.95;17.45;;;;;;;1.23;48.30;100587.42;1661672;86;21171;-64
2021/03/26 01:01:01;;;;;;;46.98;16.45;;;;;;;1.19;48.35;100588.19;1683058;85;21397;-63
2021/03/26 01:03:29;;;;;;;45.85;18.05;;;;;;;1.20;48.38;100589.89;1683183;85;21169;-64
2021/03/26 01:06:06;;;;;;;43.68;16.23;;;;;;;1.21;48.30;100592.95;1661593;86;21910;-65
2021/03/26 01:08:35;;;;;;;48.90;17.35;;;;;;;1.21;48.24;100590.75;1683564;85;21407;-65
2021/03/26 01:11:15;;;;;;;48.78;15.65;;;;;;;1.21;48.24;100592.09;1661669;86;21164;-63
2021/03/26 01:13:44;;;;;;;;;;;;;;;1.22;48.04;100592.45;1688354;84;21221;-63
2021/03/26 01:16:13;;;;;;;34.18;12.78;;;;;;;1.16;47.75;100588.94;1689201;85;20220;-65
2021/03/26 01:18:43;;;;;;;38.23;14.50;;;;;;;1.12;47.30;100592.89;1688936;85;21208;-65
2021/03/26 01:21:16;;;;;;;44.35;17.12;;;;;;;1.15;47.20;100593.98;1688676;85;21259;-64
2021/03/26 01:23:44;;;;;;;40.63;14.98;;;;;;;1.17;47.35;100587.95;1688809;85;21456;-64
2021/03/26 01:26:13;;;;;;;37.30;14.25;;;;;;;1.20;47.63;100597.13;1688677;85;21222;-62
2021/03/26 01:28:43;;;;;;;35.38;13.13;;;;;;;1.20;47.75;100594.44;1688636;84;21206;-62
2021/03/26 01:31:26;;;;;;;30.50;12.25;;;;;;;1.17;47.84;100594.20;1688907;85;21173;-66
2021/03/26 01:33:55;;;;;;;33.75;13.10;;;;;;;1.14;47.77;100596.31;1688962;84;21384;-63
2021/03/26 01:36:26;;;;;;;37.25;14.10;;;;;;;1.09;47.68;100596.72;1688951;85;21174;-64
2021/03/26 01:38:54;;;;;;;45.63;16.30;;;;;;;1.07;47.44;100597.83;1688981;85;21193;-64
2021/03/26 01:41:27;;;;;;;40.23;17.27;;;;;;;1.08;47.44;100603.59;1688863;84;21145;-64
2021/03/26 01:43:54;;;;;;;36.98;15.50;;;;;;;1.11;47.38;100602.84;1683984;84;21483;-64
2021/03/26 01:46:24;;;;;;;36.23;15.45;;;;;;;1.17;47.16;100610.40;1688977;85;21161;-63
2021/03/26 01:48:59;;;;;;;47.00;16.93;;;;;;;1.22;46.90;100609.51;1688875;85;21928;-63
2021/03/26 01:51:35;;;;;;;42.65;15.60;;;;;;;1.22;46.82;100612.20;1688759;85;21208;-64
2021/03/26 01:54:05;;;;;;;36.75;15.55;;;;;;;1.23;46.83;100607.17;1689046;84;21165;-64
2021/03/26 01:56:34;;;;;;;36.68;13.35;;;;;;;1.24;46.79;100606.67;1690504;84;21142;-64
2021/03/26 01:59:11;;;;;;;42.62;15.00;;;;;;;1.26;46.61;100608.75;1668622;86;21309;-63
2021/03/26 02:01:45;;;;;;;30.92;12.85;;;;;;;1.23;46.52;100607.17;1664913;86;21181;-63
2021/03/26 02:04:30;;;;;;;36.58;14.80;;;;;;;1.23;46.61;100606.31;1696323;84;21208;-63
2021/03/26 02:07:00;;;;;;;42.25;14.98;;;;;;;1.26;46.66;100602.00;1695508;84;21912;-65
2021/03/26 02:09:31;;;;;;;39.40;14.13;;;;;;;1.27;46.64;100605.91;1689632;84;21181;-64
2021/03/26 02:12:14;;;;;;;39.63;14.73;;;;;;;1.31;46.41;100605.68;1696280;84;21319;-63
2021/03/26 02:14:50;;;;;;;37.03;13.50;;;;;;;1.31;46.41;100607.89;1696312;84;21201;-64
2021/03/26 02:17:21;;;;;;;39.33;13.65;;;;;;;1.35;46.68;100609.83;1695838;84;21181;-64
2021/03/26 02:20:12;;;;;;;37.13;15.08;;;;;;;1.37;46.85;100604.66;1695674;84;21810;-64
2021/03/26 02:22:41;;;;;;;40.28;14.60;;;;;;;1.40;46.95;100606.23;1696242;84;21176;-63
2021/03/26 02:25:11;;;;;;;38.28;13.60;;;;;;;1.43;47.12;100616.76;1696233;84;21409;-63
2021/03/26 02:27:39;;;;;;;35.65;13.78;;;;;;;1.42;47.18;100610.50;1696547;84;21217;-65
2021/03/26 02:30:18;;;;;;;32.17;12.80;;;;;;;1.42;47.26;100618.60;1696290;84;21233;-63
2021/03/26 02:32:47;;;;;;;37.93;13.85;;;;;;;1.41;47.30;100609.29;1696430;84;21169;-63
2021/03/26 02:35:33;;;;;;;36.13;13.28;;;;;;;1.40;47.25;100608.44;1696274;84;21166;-63
2021/03/26 02:38:23;;;;;;;35.80;13.25;;;;;;;1.41;47.14;100604.75;1686798;84;21864;-63
2021/03/26 02:41:02;;;;;;;38.95;14.00;;;;;;;1.39;47.22;100616.67;1668853;86;21378;-64
2021/03/26 02:43:42;;;;;;;46.50;18.00;;;;;;;1.34;47.26;100608.11;1631840;87;21305;-64
2021/03/26 02:46:17;;;;;;;44.83;15.72;;;;;;;1.27;47.01;100609.96;1689847;85;21158;-64
2021/03/26 02:49:21;;;;;;;42.25;16.15;;;;;;;1.21;46.71;100610.50;1668657;86;21238;-65
2021/03/26 02:51:54;;;;;;;46.45;17.25;;;;;;;1.20;46.68;100611.98;1690463;85;21158;-64
2021/03/26 02:54:42;;;;;;;58.38;19.40;;;;;;;1.19;46.82;100610.27;1689404;85;21463;-64
2021/03/26 02:57:21;;;;;;;63.78;22.85;;;;;;;1.15;47.12;100613.72;1668928;86;21182;-64
2021/03/26 03:00:10;;;;;;;76.97;25.20;;;;;;;1.09;47.39;100614.75;1665367;85;21162;-65
2021/03/26 03:02:40;;;;;;;61.18;21.33;;;;;;;1.04;47.49;100615.63;1690470;85;21464;-63
2021/03/26 03:05:25;;;;;;;57.30;21.45;;;;;;;1.01;47.72;100614.55;1665478;85;21605;-63
2021/03/26 03:08:16;;;;;;;55.17;20.12;;;;;;;0.99;47.94;100613.33;1668900;86;21174;-62
2021/03/26 03:10:57;;;;;;;34.33;12.82;;;;;;;0.98;48.14;100625.11;1689116;85;21924;-65
2021/03/26 03:14:02;;;;;;;28.62;12.10;;;;;;;1.02;48.02;100622.52;1690270;85;21162;-63
2021/03/26 03:16:52;;;;;;;34.00;14.78;;;;;;;1.02;47.76;100617.11;1668815;86;21297;-63
2021/03/26 03:19:48;;;;;;;35.10;13.70;;;;;;;1.01;47.70;100629.39;1690306;85;21221;-63
2021/03/26 03:22:30;;;;;;;38.67;14.38;;;;;;;1.01;47.69;100632.94;1688288;84;21461;-62
2021/03/26 03:25:10;;;;;;;32.13;13.32;;;;;;;1.04;47.64;100640.77;1666703;84;21226;-63
2021/03/26 03:27:51;;;;;;;36.73;14.30;;;;;;;1.10;47.37;100643.44;1696013;84;21288;-65
2021/03/26 03:30:55;;;;;;;33.85;13.10;;;;;;;1.14;46.96;100643.05;1696362;84;21181;-66
2021/03/26 03:33:47;;;;;;;36.00;13.30;;;;;;;1.23;47.10;100646.80;1637867;86;21398;-65
2021/03/26 03:36:19;;;;;;;40.05;14.87;;;;;;;1.22;47.31;100654.53;1648681;86;21426;-64
2021/03/26 03:39:10;;;;;;;42.10;14.95;;;;;;;1.15;47.27;100654.20;1658735;86;21459;-65
2021/03/26 03:42:13;;;;;;;36.75;14.65;;;;;;;1.14;46.88;100654.33;1636778;86;21183;-64
2021/03/26 03:44:57;;;;;;;41.28;14.53;;;;;;;1.21;46.48;100655.52;1631776;86;21913;-62
2021/03/26 03:47:42;;;;;;;44.83;15.35;;;;;;;1.30;46.10;100653.41;1658659;86;21182;-63
2021/03/26 03:50:46;;;;;;;36.08;13.90;;;;;;;1.38;46.23;100657.66;1658079;86;21898;-64
2021/03/26 03:53:27;;;;;;;37.73;14.33;;;;;;;1.43;46.09;100652.71;1658109;86;21436;-64
2021/03/26 03:56:20;;;;;;;36.48;13.15;;;;;;;1.48;45.61;100661.77;1658079;86;21312;-64
2021/03/26 03:59:02;;;;;;;39.83;14.58;;;;;;;1.52;45.18;100660.02;1634819;86;21190;-63
2021/03/26 04:01:51;;;;;;;38.48;14.10;;;;;;;1.56;45.24;100656.05;1654287;86;21444;-64
2021/03/26 04:04:23;;;;;;;36.13;13.43;;;;;;;1.59;45.20;100658.48;1643544;86;21232;-64
2021/03/26 04:07:10;;;;;;;35.70;13.60;;;;;;;1.63;45.32;100656.87;1582643;89;21313;-62
2021/03/26 04:09:49;;;;;;;34.95;13.03;;;;;;;1.63;45.30;100656.87;1608524;89;21212;-64
2021/03/26 04:12:23;;;;;;;36.60;13.88;;;;;;;1.66;45.20;100664.70;1580743;89;21215;-66
2021/03/26 04:14:56;;;;;;;30.40;11.80;;;;;;;1.66;45.13;100657.45;1582459;87;21250;-63
2021/03/26 04:17:32;;;;;;;28.90;11.78;;;;;;;1.68;44.82;100658.67;1608443;89;21469;-62
2021/03/26 04:20:08;;;;;;;36.28;14.70;;;;;;;1.70;44.74;100656.20;1605541;89;21912;-64
2021/03/26 04:22:40;;;;;;;31.57;13.00;;;;;;;1.75;44.78;100654.44;1612245;87;21443;-64
2021/03/26 04:25:27;;;;;;;32.80;13.05;;;;;;;1.75;44.80;100652.59;1633985;87;21991;-62
2021/03/26 04:28:24;;;;;;;26.97;11.50;;;;;;;1.76;44.76;100657.50;1634455;87;21907;-63
2021/03/26 04:31:04;;;;;;;28.90;11.00;;;;;;;1.79;44.66;100660.79;1630512;87;21978;-63
2021/03/26 04:33:33;;;;;;;26.50;10.72;;;;;;;1.82;44.65;100659.17;1628870;88;21245;-63
2021/03/26 04:36:04;;;;;;;27.30;10.98;;;;;;;1.89;44.72;100670.29;1630457;87;21253;-63
2021/03/26 04:38:45;;;;;;;25.90;10.98;;;;;;;1.90;44.74;100669.30;1626413;88;21857;-63
2021/03/26 04:41:27;;;;;;;23.85;9.95;;;;;;;1.94;44.82;100671.23;1630010;87;21159;-65
2021/03/26 04:44:15;;;;;;;26.07;10.72;;;;;;;1.99;44.87;100682.03;1630072;87;21209;-63
2021/03/26 04:47:10;;;;;;;29.10;10.88;;;;;;;2.00;44.96;100678.34;1589539;88;21192;-64
2021/03/26 04:49:43;;;;;;;29.35;11.00;;;;;;;2.05;45.05;100676.58;1596769;88;21946;-65
2021/03/26 04:52:24;;;;;;;27.48;10.38;;;;;;;2.10;45.13;100680.58;1572118;89;21874;-64
2021/03/26 04:55:12;;;;;;;29.72;11.10;;;;;;;2.14;45.19;100681.16;1593307;89;21186;-63
2021/03/26 04:57:55;;;;;;;24.30;10.23;;;;;;;2.13;45.35;100688.41;1599437;89;21352;-64
2021/03/26 05:00:39;;;;;;;27.22;10.68;;;;;;;2.15;45.50;100693.69;1599150;89;21193;-64
2021/03/26 05:03:21;;;;;;;32.83;11.10;;;;;;;2.14;45.67;100691.97;1550506;91;21585;-63
2021/03/26 05:06:07;;;;;;;25.55;9.88;;;;;;;2.11;45.88;100696.30;1575796;89;21483;-63
2021/03/26 05:08:41;;;;;;;23.60;10.13;;;;;;;2.09;46.12;100701.84;1599070;89;22029;-63
2021/03/26 05:11:29;;;;;;;28.38;10.60;;;;;;;2.08;46.30;100700.63;1599280;89;21947;-64
2021/03/26 05:14:00;;;;;;;23.25;9.38;;;;;;;2.13;46.47;100697.87;1583247;90;21284;-63
2021/03/26 05:16:41;;;;;;;27.15;10.63;;;;;;;2.17;46.70;100702.02;1582587;90;21263;-63
2021/03/26 05:19:56;;;;;;;27.52;9.83;;;;;;;2.20;46.90;100702.23;1599453;89;21230;-66
2021/03/26 05:22:57;;;;;;;27.52;12.35;;;;;;;2.22;47.20;100704.30;1572048;89;21246;-63
2021/03/26 05:25:39;;;;;;;32.08;11.57;;;;;;;2.27;47.46;100710.66;1596244;89;21250;-63
2021/03/26 05:28:28;;;;;;;29.42;11.08;;;;;;;2.25;47.99;100708.09;1581144;88;21944;-65
2021/03/26 05:31:30;;;;;;;34.03;12.18;;;;;;;2.26;48.17;100703.04;1628664;88;21338;-65
2021/03/26 05:34:08;;;;;;;35.55;12.90;;;;;;;2.31;48.41;100710.25;1610826;88;22061;-65
2021/03/26 05:36:40;;;;;;;37.80;13.90;;;;;;;2.37;48.56;100712.40;1610812;89;21918;-64
2021/03/26 05:39:29;;;;;;;36.42;14.75;;;;;;;2.42;48.77;100711.98;1610764;89;22023;-63
2021/03/26 05:43:02;;;;;;;33.88;12.68;;;;;;;2.49;49.00;100711.80;1590151;89;21207;-63
2021/03/26 05:45:45;;;;;;;33.45;12.90;;;;;;;2.58;49.09;100710.96;1580320;89;21337;-63
2021/03/26 05:48:28;;;;;;;33.20;12.35;;;;;;;2.68;49.23;100713.22;1576929;89;21383;-63
2021/03/26 05:51:19;;;;;;;28.50;12.35;;;;;;;2.73;49.34;100712.30;1610782;89;21230;-64
2021/03/26 05:53:56;;;;;;;30.77;10.85;;;;;;;2.80;49.49;100716.66;1610564;89;21187;-64
2021/03/26 05:56:33;;;;;;;25.32;10.43;;;;;;;2.89;49.48;100714.96;1610444;89;21187;-63
2021/03/26 05:59:14;;;;;;;24.77;9.58;;;;;;;2.98;49.55;100722.23;1610956;89;22022;-63
2021/03/26 06:02:07;;;;;;;24.25;10.20;;;;;;;3.04;49.52;100723.88;1600522;89;21422;-64
2021/03/26 06:05:24;;;;;;;35.30;11.85;;;;;;;3.11;49.59;100730.44;1610820;89;22026;-63
2021/03/26 06:08:31;;;;;;;31.40;10.75;;;;;;;3.21;49.63;100726.88;1588392;89;21442;-64
2021/03/26 06:11:57;;;;;;;27.42;11.28;;;;;;;3.30;49.62;100729.61;1590479;89;21198;-63
2021/03/26 06:15:08;;;;;;;24.40;10.63;;;;;;;3.37;49.67;100725.33;1610791;89;21206;-63
2021/03/26 06:18:28;;;;;;;33.15;11.53;;;;;;;3.48;49.64;100727.03;1558839;89;21321;-63
2021/03/26 06:21:37;;;;;;;25.12;10.90;;;;;;;3.61;49.55;100734.36;1611025;89;21849;-63
2021/03/26 06:24:17;;;;;;;35.38;11.70;;;;;;;3.76;49.35;100731.55;1574636;89;21791;-64
2021/03/26 06:27:24;;;;;;;29.77;12.50;;;;;;;3.85;49.18;100729.82;1610429;89;21207;-64
2021/03/26 06:30:24;;;;;;;26.65;11.60;;;;;;;3.94;49.07;100735.75;1611119;89;22110;-64
2021/03/26 06:33:25;;;;;;;28.95;12.30;;;;;;;4.05;48.93;100728.80;1620160;87;21463;-64
2021/03/26 06:36:24;;;;;;;24.75;10.50;;;;;;;4.17;48.69;100720.48;1631453;87;21162;-63
2021/03/26 06:39:17;;;;;;;27.58;10.50;;;;;;;4.29;48.49;100720.14;1619391;88;21376;-64
2021/03/26 06:42:16;;;;;;;22.40;9.83;;;;;;;4.41;48.23;100716.73;1631493;88;21174;-63
2021/03/26 06:45:19;;;;;;;21.70;9.25;;;;;;;4.54;47.91;100721.30;1631520;88;21481;-64
2021/03/26 06:48:16;;;;;;;21.42;9.63;;;;;;;4.69;47.50;100721.17;1631474;87;21352;-65
2021/03/26 06:51:01;;;;;;;19.75;9.78;;;;;;;4.82;46.93;100715.88;1631475;87;21194;-64
2021/03/26 06:54:15;;;;;;;24.37;9.48;;;;;;;4.93;46.74;100717.02;1631335;87;21185;-65
2021/03/26 06:57:00;;;;;;;25.88;10.65;;;;;;;5.04;46.58;100723.08;1631452;87;21448;-65
2021/03/26 06:59:43;;;;;;;26.77;10.48;;;;;;;5.17;46.32;100719.98;1605374;89;21145;-65
2021/03/26 07:02:44;;;;;;;22.48;9.55;;;;;;;5.28;46.12;100724.36;1601210;88;21946;-65
2021/03/26 07:06:06;;;;;;;19.92;8.35;;;;;;;5.38;45.21;100719.70;1588408;88;21309;-64
2021/03/26 07:09:08;;;;;;;21.57;7.85;;;;;;;5.53;44.34;100722.70;1586538;89;21239;-65
2021/03/26 07:11:58;;;;;;;19.90;7.90;;;;;;;5.67;43.85;100718.06;1618333;88;21332;-64
2021/03/26 07:14:52;;;;;;;21.68;9.63;;;;;;;5.81;43.44;100721.56;1619353;88;21892;-65
2021/03/26 07:17:43;;;;;;;20.17;8.55;;;;;;;5.95;42.96;100721.05;1644959;86;21382;-65
2021/03/26 07:20:22;;;;;;;22.62;8.00;;;;;;;6.09;42.78;100725.55;1630752;88;21158;-65
2021/03/26 07:23:33;;;;;;;19.48;9.30;;;;;;;6.24;42.44;100714.41;1631532;88;21157;-64
2021/03/26 07:26:16;;;;;;;21.68;11.05;;;;;;;6.36;42.50;100713.96;1631334;88;21430;-64
2021/03/26 07:29:01;;;;;;;19.82;9.50;;;;;;;6.50;41.69;100711.64;1618913;87;21363;-65
2021/03/26 07:31:57;;;;;;;65.57;40.03;;;;;;;6.63;41.25;100725.17;1630927;88;21165;-66
2021/03/26 07:35:03;;;;;;;25.12;11.95;;;;;;;6.76;40.85;100723.34;1613540;88;21852;-66
2021/03/26 07:38:11;;;;;;;24.75;11.28;;;;;;;6.88;40.09;100726.61;1630252;86;21377;-65
2021/03/26 07:40:52;;;;;;;51.23;23.12;;;;;;;6.98;39.26;100725.95;1629915;87;21197;-65
2021/03/26 07:43:47;;;;;;;239.68;103.75;;;;;;;7.07;39.12;100733.13;1600621;89;21260;-66
2021/03/26 07:46:31;;;;;;;93.87;36.80;;;;;;;7.17;39.36;100731.14;1629466;88;21270;-66
2021/03/26 07:49:38;;;;;;;68.37;28.67;;;;;;;7.27;39.52;100730.47;1600562;89;21325;-66
2021/03/26 07:52:24;;;;;;;36.75;16.23;;;;;;;7.44;40.26;100735.94;1630014;88;21177;-67
2021/03/26 07:55:12;;;;;;;45.35;18.23;;;;;;;7.67;40.30;100735.59;1589262;89;21961;-66
2021/03/26 07:57:57;;;;;;;35.05;13.40;;;;;;;7.85;40.00;100730.00;1651474;86;21460;-65
2021/03/26 08:00:54;;;;;;;59.40;27.20;;;;;;;8.02;40.06;100742.59;1641087;87;21221;-64
2021/03/26 08:03:58;;;;;;;25.85;12.40;;;;;;;8.18;40.06;100738.98;1612805;86;21474;-66
2021/03/26 08:07:09;;;;;;;23.40;11.88;;;;;;;8.33;40.12;100744.57;1615732;86;21194;-64
2021/03/26 08:10:24;;;;;;;23.27;10.80;;;;;;;8.47;40.24;100737.09;1614157;88;21187;-66
2021/03/26 08:13:31;;;;;;;38.80;16.93;;;;;;;8.62;40.36;100735.84;1619538;88;21209;-65
2021/03/26 08:16:35;;;;;;;21.73;9.73;;;;;;;8.76;40.54;100744.66;1629660;86;21154;-65
2021/03/26 08:19:38;;;;;;;21.73;10.15;;;;;;;8.84;40.68;100741.87;1615769;86;21184;-66
2021/03/26 08:22:35;;;;;;;27.00;15.80;;;;;;;8.89;40.72;100740.31;1615276;88;21204;-67
2021/03/26 08:25:29;;;;;;;23.12;12.85;;;;;;;8.94;40.76;100741.66;1627650;88;21213;-67
2021/03/26 08:28:41;;;;;;;19.90;8.45;;;;;;;8.98;40.80;100745.23;1607056;88;21857;-66
2021/03/26 08:31:49;;;;;;;17.67;8.28;;;;;;;9.06;40.64;100740.23;1629502;88;21232;-66
2021/03/26 08:34:45;;;;;;;13.83;7.08;;;;;;;9.12;40.65;100736.30;1612579;86;21847;-67
2021/03/26 08:37:32;;;;;;;16.35;8.00;;;;;;;9.20;40.67;100740.34;1618396;88;21432;-68
2021/03/26 08:40:01;;;;;;;13.80;6.53;;;;;;;9.31;40.76;100737.70;1617807;88;21259;-68
2021/03/26 08:42:43;;;;;;;13.72;6.42;;;;;;;9.44;40.38;100747.53;1600863;89;21677;-66
2021/03/26 08:45:22;;;;;;;15.05;6.67;;;;;;;9.50;40.18;100746.80;1587537;89;21408;-65
2021/03/26 08:48:13;;;;;;;14.43;5.97;;;;;;;9.58;40.01;100749.98;1603922;88;21254;-66
2021/03/26 08:51:12;;;;;;;14.65;6.92;;;;;;;9.63;39.93;100750.29;1590969;89;21478;-67
2021/03/26 08:54:15;;;;;;;28.95;7.92;;;;;;;9.71;39.90;100746.13;1593409;88;21109;-68
2021/03/26 08:57:00;;;;;;;16.10;7.65;;;;;;;9.85;40.01;100747.23;1589704;89;21400;-66
2021/03/26 08:59:52;;;;;;;16.57;7.45;;;;;;;9.94;39.86;100755.70;1604354;89;21105;-65
2021/03/26 09:02:43;;;;;;;15.35;7.10;;;;;;;10.01;39.72;100757.18;1605190;89;21236;-69
2021/03/26 09:05:51;;;;;;;14.07;7.17;;;;;;;10.10;39.32;100754.70;1595188;89;21270;-67
2021/03/26 09:08:42;;;;;;;14.83;6.65;;;;;;;10.17;39.15;100757.02;1610844;89;21090;-67
2021/03/26 09:11:39;;;;;;;13.32;6.80;;;;;;;10.24;39.01;100758.01;1593214;89;21455;-66
2021/03/26 09:14:30;;;;;;;16.87;6.53;;;;;;;10.37;38.85;100756.84;1607054;88;21380;-65
2021/03/26 09:17:26;;;;;;;277.02;19.00;;;;;;;10.52;38.26;100754.66;1617223;88;21907;-69
2021/03/26 09:20:04;;;;;;;21.90;6.10;;;;;;;10.63;38.03;100755.55;1624025;88;21647;-68
2021/03/26 09:22:49;;;;;;;12.78;5.80;;;;;;;10.72;37.78;100762.64;1616059;87;21074;-64
2021/03/26 09:25:47;;;;;;;14.70;6.05;;;;;;;10.77;37.13;100758.28;1625114;88;21119;-66
2021/03/26 09:28:40;;;;;;;14.38;5.42;;;;;;;10.76;36.74;100763.44;1602992;89;21191;-67
2021/03/26 09:31:20;;;;;;;9.93;4.28;;;;;;;10.83;36.67;100759.41;1592197;89;21085;-67
2021/03/26 09:33:59;;;;;;;10.53;4.10;;;;;;;10.93;35.66;100758.59;1616446;87;21367;-65
2021/03/26 09:36:35;;;;;;;8.33;3.42;;;;;;;10.98;34.84;100756.13;1600660;89;21197;-65
2021/03/26 09:39:12;;;;;;;11.20;3.50;;;;;;;10.96;33.83;100759.59;1600261;89;21089;-67
2021/03/26 09:41:55;;;;;;;;;;;;;;;10.96;33.34;100760.11;1604168;88;21754;-65
2021/03/26 09:44:45;;;;;;;25.27;5.90;;;;;;;10.99;33.67;100766.05;1582334;89;20227;-66
2021/03/26 09:47:29;;;;;;;9.58;4.30;;;;;;;11.00;33.81;100760.91;1585163;90;21139;-65
2021/03/26 09:50:08;;;;;;;9.55;4.10;;;;;;;11.10;33.87;100768.86;1561277;90;21329;-66
2021/03/26 09:52:39;;;;;;;9.03;4.47;;;;;;;11.21;33.77;100766.14;1612793;88;21886;-67
2021/03/26 09:55:15;;;;;;;8.30;3.80;;;;;;;11.33;33.24;100768.70;1613366;88;21491;-69
2021/03/26 09:58:20;;;;;;;8.73;4.12;;;;;;;11.43;33.06;100770.09;1623446;88;21429;-65
2021/03/26 10:00:52;;;;;;;10.68;4.80;;;;;;;11.48;32.56;100766.77;1587434;88;21319;-69
2021/03/26 10:03:47;;;;;;;8.50;3.47;;;;;;;11.51;32.60;100767.75;1600407;89;21393;-62
2021/03/26 10:07:01;;;;;;;7.42;3.25;;;;;;;11.56;32.28;100769.38;1616824;88;21838;-66
2021/03/26 10:09:39;;;;;;;7.85;4.10;;;;;;;11.55;32.00;100770.43;1596558;89;21843;-63
2021/03/26 10:12:25;;;;;;;10.05;4.40;;;;;;;11.58;32.03;100767.81;1600877;89;21029;-65
2021/03/26 10:15:02;;;;;;;8.90;4.40;;;;;;;11.63;32.25;100768.93;1582417;88;21086;-64
2021/03/26 10:18:00;;;;;;;7.47;3.70;;;;;;;11.74;32.14;100773.93;1616311;88;21139;-67
2021/03/26 10:21:00;;;;;;;6.55;3.55;;;;;;;11.83;32.21;100767.81;1607624;88;21201;-65
2021/03/26 10:23:53;;;;;;;6.97;3.72;;;;;;;11.94;31.88;100771.92;1614441;87;21208;-64
2021/03/26 10:26:41;;;;;;;7.00;3.30;;;;;;;12.02;31.44;100765.77;1615826;87;21502;-65
2021/03/26 10:29:49;;;;;;;9.10;4.20;;;;;;;12.04;30.65;100760.92;1606683;88;21120;-63
2021/03/26 10:32:31;;;;;;;8.23;4.78;;;;;;;12.11;30.74;100765.10;1607581;87;21160;-66
2021/03/26 10:35:03;;;;;;;7.60;3.45;;;;;;;12.23;30.61;100762.13;1610119;87;21118;-65
2021/03/26 10:38:02;;;;;;;6.53;3.60;;;;;;;12.27;30.52;100757.09;1657899;85;21258;-65
2021/03/26 10:40:41;;;;;;;8.28;3.95;;;;;;;12.29;30.22;100749.48;1652926;85;21359;-64
2021/03/26 10:43:25;;;;;;;9.40;4.20;;;;;;;12.27;30.31;100744.20;1624368;87;21502;-63
2021/03/26 10:46:09;;;;;;;8.65;4.03;;;;;;;12.32;30.36;100758.19;1663198;85;21237;-63
2021/03/26 10:49:17;;;;;;;7.65;3.80;;;;;;;12.41;30.17;100752.04;1650169;85;21356;-63
2021/03/26 10:52:11;;;;;;;8.35;4.60;;;;;;;12.48;29.97;100757.58;1651450;85;21412;-63
2021/03/26 10:54:46;;;;;;;7.03;3.87;;;;;;;12.52;29.71;100757.50;1657921;85;21369;-62
2021/03/26 10:57:37;;;;;;;9.33;4.20;;;;;;;12.62;29.29;100755.23;1648318;85;21785;-63
2021/03/26 11:00:22;;;;;;;7.40;4.30;;;;;;;12.65;29.35;100754.83;1652230;85;21177;-63
2021/03/26 11:03:00;;;;;;;14.40;7.78;;;;;;;12.70;29.51;100749.57;1624449;87;21093;-61
2021/03/26 11:05:55;;;;;;;12.50;5.87;;;;;;;12.81;29.47;100742.13;1640243;85;21325;-64
2021/03/26 11:08:37;;;;;;;11.55;4.40;;;;;;;12.93;29.52;100744.61;1647258;85;21147;-65
2021/03/26 11:11:15;;;;;;;6.50;3.87;;;;;;;13.07;29.13;100748.30;1613869;87;21102;-65
2021/03/26 11:14:07;;;;;;;9.45;3.42;;;;;;;13.06;29.04;100743.00;1646381;85;21031;-63
2021/03/26 11:16:43;;;;;;;5.83;2.98;;;;;;;13.04;28.83;100743.20;1658931;85;21088;-66
2021/03/26 11:19:33;;;;;;;9.50;3.17;;;;;;;12.95;28.92;100736.16;1654988;85;21086;-63
2021/03/26 11:22:21;;;;;;;5.83;3.25;;;;;;;12.86;29.26;100747.85;1655446;85;21077;-62
2021/03/26 11:25:06;;;;;;;6.97;3.42;;;;;;;12.80;29.42;100749.20;1654664;85;21477;-62
2021/03/26 11:27:52;;;;;;;8.48;4.30;;;;;;;12.78;29.54;100742.53;1653805;85;21124;-70
2021/03/26 11:30:44;;;;;;;7.03;3.00;;;;;;;12.87;29.79;100746.80;1662994;85;21349;-65
2021/03/26 11:33:42;;;;;;;7.65;3.37;;;;;;;12.98;29.60;100741.24;1651179;85;21464;-68
2021/03/26 11:36:50;;;;;;;9.95;3.37;;;;;;;13.07;29.59;100744.70;1658063;85;21111;-65
2021/03/26 11:39:38;;;;;;;6.47;3.10;;;;;;;13.15;29.66;100743.98;1640885;86;21091;-62
2021/03/26 11:42:20;;;;;;;6.50;3.47;;;;;;;13.29;29.60;100736.13;1635234;85;21791;-65
2021/03/26 11:44:59;;;;;;;9.93;3.92;;;;;;;13.48;29.79;100744.64;1623908;87;21197;-64
2021/03/26 11:47:34;;;;;;;4.97;2.85;;;;;;;13.68;29.53;100740.05;1630427;85;21155;-64
2021/03/26 11:50:37;;;;;;;5.30;2.77;;;;;;;13.77;29.67;100735.19;1655810;85;22138;-64
2021/03/26 11:53:33;;;;;;;9.40;2.45;;;;;;;13.80;29.79;100749.39;1580525;89;21330;-66
2021/03/26 11:56:38;;;;;;;5.00;2.50;;;;;;;13.77;29.70;100732.44;1643763;84;21094;-63
2021/03/26 11:59:19;;;;;;;7.40;2.30;;;;;;;13.78;30.02;100727.25;1668319;84;21070;-65
2021/03/26 12:02:09;;;;;;;4.40;2.10;;;;;;;13.81;29.95;100741.97;1663646;84;21074;-64
2021/03/26 12:05:10;;;;;;;6.53;2.65;;;;;;;13.82;30.10;100728.52;1660178;84;21070;-65
2021/03/26 12:08:00;;;;;;;6.50;2.40;;;;;;;13.94;30.11;100728.20;1685680;83;21049;-63
2021/03/26 12:10:41;;;;;;;4.78;2.40;;;;;;;14.06;29.83;100722.38;1690669;83;21191;-66
2021/03/26 12:13:25;;;;;;;13.65;2.90;;;;;;;14.13;29.98;100721.84;1698096;83;21089;-67
2021/03/26 12:16:21;;;;;;;4.28;2.45;;;;;;;14.24;29.86;100720.34;1680438;84;21073;-66
2021/03/26 12:18:56;;;;;;;5.62;2.40;;;;;;;14.38;29.64;100721.20;1691215;84;21262;-66
2021/03/26 12:22:00;;;;;;;5.60;2.50;;;;;;;14.46;29.46;100708.59;1667210;85;21298;-66
2021/03/26 12:24:48;;;;;;;5.65;2.70;;;;;;;14.52;29.36;100715.48;1687750;84;21124;-66
2021/03/26 12:27:30;;;;;;;;;;;;;;;14.58;29.52;100700.83;1688733;84;21869;-66
2021/03/26 12:30:26;;;;;;;6.85;2.80;;;;;;;14.66;29.15;100706.63;1682302;84;20266;-63
2021/03/26 12:33:11;;;;;;;5.83;2.12;;;;;;;14.69;29.21;100708.95;1660248;84;21300;-65
2021/03/26 12:35:43;;;;;;;4.25;1.90;;;;;;;14.68;28.90;100707.80;1683735;84;21173;-65
2021/03/26 12:38:40;;;;;;;3.55;2.08;;;;;;;14.59;29.04;100701.67;1688059;84;21260;-66
2021/03/26 12:41:40;;;;;;;5.17;2.08;;;;;;;14.50;28.78;100702.44;1691382;84;21309;-64
2021/03/26 12:44:26;;;;;;;7.00;2.27;;;;;;;14.42;28.88;100701.79;1684994;84;21106;-63